Oscar Dyson — WTEP — position and weather

sailwx.info

Track history (hours):
 
Tides and Currents Weather Stations Pressure Air Temp Water Temp Dewpoint Dewpoint Depression Visibility Wind Speed Wind Dir Waves Ship Positions

Oceanographic research ship Oscar Dyson (USA)

Ship's website: http://www.moc.noaa.gov/od/

Detailed information on ship capabilities available from University of Delaware's Ocean Information Center and ARCUS's ALIAS (Arctic Logistics Information and Support) project.

Last reported at 2019-Apr-17 04:00 UTC. Time now 2019-Apr-18 11:07 UTC.
Position N 57°48' W 152°24'.

Type: Other ship. MMSI: 368926382.

Wind from 300 at 2 knots

Barometer 999.3 mb
Air temperature 7.2 ° C
Dewpoint 2.0 ° C
Water temperature 6.4 ° C

Date/timePositionNaut miles runAvg speedWind from/ knotsBaromVisibWave heightAir tempDewpointWater temp
2019-Apr-17 04:00N 57°48' W 152°24'6 6.0 300 / 2999.3 7.2 2.0 6.4
2019-Apr-17 03:00N 57°42' W 152°24'10 9.6 090 / 15999.2 7.4 3.0 6.3
2019-Apr-17 02:00N 57°42' W 152°06'10 9.6 100 / 19999.4 6.6 2.1 6.5
2019-Apr-17 01:00N 57°42' W 151°48'1111.3 140 / 13999.6 6.6 2.2 6.3
2019-Apr-17 00:00N 57°48' W 151°30'10 9.6 140 / 15999.6 6.7 3.2 6.4
2019-Apr-16 23:00N 57°48' W 151°12'10 9.6 150 / 18999.0 6.8 3.2 6.5
2019-Apr-16 22:00N 57°48' W 150°54'10 9.6 140 / 18998.6 7.2 3.4 6.4
2019-Apr-16 21:00N 57°48' W 150°36'10 9.6 140 / 12998.4 7.6 2.9 6.5
2019-Apr-16 20:00N 57°48' W 150°18'1312.8 140 / 10997.9 8.2 3.3 6.7
2019-Apr-16 19:00N 57°48' W 149°54'10 9.6 140 / 9997.0 7.9 3.2 6.6
2019-Apr-16 18:00N 57°48' W 149°36'10 9.6 130 / 4996.2 8.5 3.7 6.6
2019-Apr-16 17:00N 57°48' W 149°18'10 9.6 210 / 5995.6 7.7 3.7 6.5
2019-Apr-16 16:00N 57°48' W 149°00'1312.8 220 / 3995.2 7.6 3.5 6.4
2019-Apr-16 15:00N 57°48' W 148°36'10 9.6 250 / 4995.0 7.3 3.4 6.4
2019-Apr-16 14:00N 57°48' W 148°18'10 9.6 260 / 5994.8 7.3 3.6 6.4
2019-Apr-16 13:00N 57°48' W 148°00'1111.3 290 / 5994.4 7.6 4.2 6.5
2019-Apr-16 12:00N 57°54' W 147°42'10 9.6 100 / 4994.4 6.6 3.7 6.5
2019-Apr-16 11:00N 57°54' W 147°24'10 9.6 060 / 9994.5 6.4 3.1 6.5
2019-Apr-16 10:00N 57°54' W 147°06'1312.8 060 / 9994.8 6.5 3.1 6.2
2019-Apr-16 09:00N 57°54' W 146°42'10 9.6 050 / 7994.5 6.6 4.2 6.2
2019-Apr-16 08:00N 57°54' W 146°24'10 9.6 060 / 6994.9 7.1 3.8 6.5
2019-Apr-16 07:00N 57°54' W 146°06'10 9.6 080 / 10995.4 7.2 3.1 6.5
2019-Apr-16 06:00N 57°54' W 145°48'1312.8 060 / 9995.8 6.0 2.2 6.4
2019-Apr-16 05:00N 57°54' W 145°24'10 9.6 070 / 9996.0 6.6 2.7 6.5
2019-Apr-16 04:00N 57°54' W 145°06'10 9.6 070 / 11996.5 7.5 2.6 6.5
2019-Apr-16 03:00N 57°54' W 144°48'10 9.6 080 / 10997.6 8.4 3.0 6.6
2019-Apr-16 02:00N 57°54' W 144°30'6 6.4 060 / 12998.3 8.0 3.1 6.6
2019-Apr-16 01:00N 57°54' W 144°18'1414.1 010 / 9998.8 8.1 3.5 6.6
2019-Apr-16 00:00N 58°00' W 143°54'1312.7 090 / 14999.8 7.7 3.3 6.5
2019-Apr-15 23:00N 58°00' W 143°30'10 9.5 090 / 181000.4 7.7 3.7 6.5
2019-Apr-15 22:00N 58°00' W 143°12'1312.7 090 / 171000.6 6.7 2.3 6.4
2019-Apr-15 21:00N 58°00' W 142°48'1312.7 090 / 181000.6 7.0 2.7 6.3
2019-Apr-15 20:00N 58°00' W 142°24'1312.7 100 / 181000.5 6.1 2.4 6.5
2019-Apr-15 19:00N 58°00' W 142°00'1312.7 100 / 141000.6 6.0 3.5 6.7
2019-Apr-15 18:00N 58°00' W 141°36'1312.7 080 / 161001.0 6.2 3.1 6.8
2019-Apr-15 17:00N 58°00' W 141°12'1312.7 070 / 191001.2 6.3 3.2 6.6
2019-Apr-15 16:00N 58°00' W 140°48'1312.7 070 / 221001.5 6.7 3.5 6.6
2019-Apr-15 15:00N 58°00' W 140°24'1414.0 060 / 191001.8 6.7 3.6 6.8
2019-Apr-15 14:00N 58°06' W 140°00'1312.7 080 / 211002.3 5.9 3.1 6.8
2019-Apr-15 13:00N 58°06' W 139°36'1312.7 070 / 171002.9 6.2 3.0 6.8
2019-Apr-15 12:00N 58°06' W 139°12'1312.7 060 / 191003.1 7.0 3.4 6.7
2019-Apr-15 11:00N 58°06' W 138°48'1312.7 060 / 211003.7 7.0 3.1 7.0
2019-Apr-15 10:00N 58°06' W 138°24'1312.7 060 / 231004.0 7.6 2.2 7.2
2019-Apr-15 09:00N 58°06' W 138°00'10 9.5 070 / 191004.2 6.6 2.6 7.3
2019-Apr-15 08:00N 58°06' W 137°42'1312.7 070 / 141004.2 8.2 2.3 7.0
2019-Apr-15 07:00N 58°06' W 137°18'1312.7 080 / 131004.6 7.1 3.1 7.2
2019-Apr-15 06:00N 58°06' W 136°54'2211.2 090 / 101004.8 7.3 3.3 7.2
2019-Apr-15 04:00N 58°18' W 136°18'1 9.1 110 / 121004.8 6.3 2.7 6.3
2019-Apr-15 03:50N 58°18' W 136°15'411.5
2019-Apr-15 03:30N 58°19' W 136°08'510.3
2019-Apr-15 03:00N 58°20' W 135°59'3202.5
2019-Apr-15 03:00N 58°18' W 135°54'3 6.3 150 / 171004.7 6.0 1.3 6.1
2019-Apr-15 02:30N 58°19' W 135°48'611.6
2019-Apr-15 02:00N 58°17' W 135°38'1108.9
2019-Apr-15 02:00N 58°18' W 135°36'811.7 150 / 211004.8 6.9 2.9 6.3
2019-Apr-15 01:18N 58°14' W 135°23'1713.1
2019-Apr-15 00:00N 58°06' W 134°54'1212.4 180 / 121004.6 4.0-2.5 6.5
2019-Apr-14 23:00N 57°54' W 134°48'1212.0 230 / 121004.5 4.4-1.8 6.7
2019-Apr-14 22:00N 57°42' W 134°48'1212.4 180 / 131004.4 4.4-1.7 6.6
2019-Apr-14 21:00N 57°30' W 134°42'1212.0 180 / 171004.4 3.0-2.2 6.2
2019-Apr-14 20:00N 57°18' W 134°42'1212.0 230 / 191003.9 4.1-3.2 6.5
2019-Apr-14 19:00N 57°06' W 134°42'1212.4 200 / 191004.0 2.7-1.5 6.5
2019-Apr-14 18:00N 56°54' W 134°36'1212.4 180 / 231003.5 2.8-1.6 7.0
2019-Apr-14 17:00N 56°42' W 134°30'1212.4 210 / 221003.4 3.1-2.9 7.0
2019-Apr-14 16:00N 56°30' W 134°24'1212.0 200 / 201003.4 3.2-2.9 7.0
2019-Apr-14 15:00N 56°18' W 134°24'1212.5 220 / 141003.4 2.3-1.7 7.2
2019-Apr-14 14:00N 56°06' W 134°18'1211.7 180 / 311003.2 3.2-2.0 7.1
2019-Apr-14 13:00N 56°00' W 134°00'1413.7 120 / 251003.3 3.6-1.5 6.7
2019-Apr-14 12:00N 56°12' W 133°48'1212.5 060 / 181003.0 2.2-1.8 6.8
2019-Apr-14 11:00N 56°24' W 133°42'1313.3 070 / 281002.6 3.5-1.6 6.6
2019-Apr-14 10:00N 56°24' W 133°18'1211.6 120 / 261002.5 3.1-1.4 6.5
2019-Apr-14 09:00N 56°18' W 133°00'9 9.0 150 / 171002.3 2.8-2.0 6.7
2019-Apr-14 08:00N 56°12' W 132°48'1413.7 160 / 261001.8 3.2-1.0 7.1
2019-Apr-14 07:00N 56°00' W 132°36'1413.8 170 / 291001.2 4.1-2.5 7.2
2019-Apr-14 06:00N 55°48' W 132°24'1212.5 180 / 271000.7 4.5-3.5 7.5
2019-Apr-14 05:00N 55°36' W 132°18'9 9.1 180 / 341000.3 4.5-4.3 7.5
2019-Apr-14 04:00N 55°30' W 132°06'1413.8 180 / 32999.4 5.6-1.3 8.1
2019-Apr-14 03:00N 55°18' W 131°54'1212.5 180 / 20999.4 5.1-1.6 7.6
2019-Apr-14 02:00N 55°06' W 131°48'1212.5 170 / 19999.2 4.6-0.9 7.6
2019-Apr-14 01:00N 54°54' W 131°42'1212.0 170 / 25999.3 4.6-1.1 7.8
2019-Apr-14 00:00N 54°48' W 131°24'1212.0 140 / 22999.3 3.2-1.7 7.6
2019-Apr-13 23:00N 54°42' W 131°06'711.0 160 / 20998.9 3.7-1.2 7.8
2019-Apr-13 22:19N 54°42' W 130°53'619.8
2019-Apr-13 22:00N 54°42' W 130°42'223.4 180 / 30998.4 3.6-0.7 7.8
2019-Apr-13 21:53N 54°40' W 130°45'513.2
2019-Apr-13 21:30N 54°37' W 130°38'612.6
2019-Apr-13 21:00N 54°31' W 130°35'1123.1
2019-Apr-13 21:00N 54°30' W 130°36'611.3 240 / 29997.6 3.7-0.8 7.8
2019-Apr-13 20:30N 54°24' W 130°36'612.4
2019-Apr-13 20:01N 54°18' W 130°35'136.5
2019-Apr-13 20:00N 54°18' W 130°36'713.5 190 / 22997.5 3.6-0.6 7.5
2019-Apr-13 19:30N 54°13' W 130°29'713.1
2019-Apr-13 19:00N 54°07' W 130°23'185.3
2019-Apr-13 19:00N 54°06' W 130°24'612.2 150 / 17997.2 3.9-0.5 7.6
2019-Apr-13 18:30N 54°03' W 130°15'612.9
2019-Apr-13 18:00N 53°57' W 130°12'3178.3
2019-Apr-13 18:00N 53°54' W 130°12'5 9.3 150 / 8996.6 3.6-0.0 7.4
2019-Apr-13 17:30N 53°53' W 130°05'815.3
2019-Apr-13 17:00N 53°48' W 129°54'268.2 140 / 9996.8 1.6-1.1 7.5
2019-Apr-13 16:58N 53°47' W 129°57'1414.8
2019-Apr-13 16:00N 53°36' W 129°42'9 9.3 180 / 19997.7 0.5-1.9 7.7
2019-Apr-13 15:00N 53°30' W 129°30'1616.1 160 / 18998.0 1.5-1.9 8.0
2019-Apr-13 14:00N 53°18' W 129°12'1110.8 130 / 12998.8 2.9-1.9 8.5
2019-Apr-13 13:00N 53°18' W 128°54'1616.1 160 / 131001.0 2.4-0.7 8.5
2019-Apr-13 12:00N 53°06' W 128°36'1312.5 150 / 191003.4 1.8-1.8 8.2
2019-Apr-13 11:00N 52°54' W 128°30'1312.5 180 / 191005.6 2.1-0.5 8.1
2019-Apr-13 10:00N 52°42' W 128°36'7 7.0 190 / 101007.2 2.7-0.4 8.2
2019-Apr-13 09:00N 52°36' W 128°30'810.3 180 / 131008.7 3.6-0.9 8.4
2019-Apr-13 08:11N 52°28' W 128°27'212.4
2019-Apr-13 08:00N 52°26' W 128°27'2175.2
2019-Apr-13 08:00N 52°24' W 128°30'4 7.7 300 / 31009.4 4.7-0.3 8.8
2019-Apr-13 07:26N 52°20' W 128°32'511.6
2019-Apr-13 07:00N 52°18' W 128°24'282.3 110 / 271010.5 4.5-0.2 9.2
2019-Apr-13 06:58N 52°16' W 128°26'612.7
2019-Apr-13 06:28N 52°14' W 128°16'612.3
2019-Apr-13 06:00N 52°13' W 128°07'172.7
2019-Apr-13 06:00N 52°12' W 128°06'3 5.3 150 / 131012.1 3.5 1.0 9.6
2019-Apr-13 05:30N 52°10' W 128°08'2 3.9
2019-Apr-13 05:00N 52°08' W 128°08'2161.4
2019-Apr-13 05:00N 52°06' W 128°06'1 2.6 170 / 71012.6 5.7 0.7 9.1
2019-Apr-13 04:30N 52°05' W 128°06'5 9.1
2019-Apr-13 03:54N 52°04' W 127°57'4 9.7
2019-Apr-13 03:30N 52°00' W 127°56'611.2
2019-Apr-13 03:00N 51°55' W 127°56'1135.8
2019-Apr-13 03:00N 51°54' W 127°54'611.6 180 / 221014.4 5.3 1.6 9.5
2019-Apr-13 02:30N 51°49' W 127°56'612.3
2019-Apr-13 02:01N 51°42' W 127°55'159.8
2019-Apr-13 02:00N 51°42' W 127°54'612.3 200 / 221015.6 7.0 0.6 9.9
2019-Apr-13 01:30N 51°36' W 127°53'612.8
2019-Apr-13 01:01N 51°30' W 127°51'2121.4
2019-Apr-13 01:00N 51°30' W 127°48'713.7 170 / 191016.6 5.8 0.7 9.5
2019-Apr-13 00:30N 51°24' W 127°51'612.1
2019-Apr-13 00:01N 51°18' W 127°54'0 4.7
2019-Apr-13 00:00N 51°18' W 127°54'612.8 190 / 201017.8 5.5 0.1 9.3
2019-Apr-12 23:30N 51°12' W 127°54'611.8
2019-Apr-12 23:01N 51°06' W 127°53'611.8
2019-Apr-12 22:30N 51°01' W 127°48'612.5
2019-Apr-12 22:00N 50°56' W 127°41'2134.1
2019-Apr-12 22:00N 50°54' W 127°42'612.0 180 / 261018.4 5.4 0.4 9.0
2019-Apr-12 21:30N 50°52' W 127°33'712.9
2019-Apr-12 21:00N 50°49' W 127°24'1180.0
2019-Apr-12 21:00N 50°48' W 127°24'612.5 140 / 191019.0 5.3-1.3 9.2
2019-Apr-12 20:30N 50°47' W 127°15'1020.4
2019-Apr-12 20:00N 50°42' W 127°00'326.8 140 / 211019.2 4.8-1.5 8.7
2019-Apr-12 19:53N 50°44' W 127°03'712.8
2019-Apr-12 19:22N 50°42' W 126°53'717.1
2019-Apr-12 19:00N 50°36' W 126°48'2199.6 160 / 131019.4 4.4-0.3 8.6
2019-Apr-12 18:59N 50°38' W 126°47'5 9.1
2019-Apr-12 18:27N 50°35' W 126°42'7 9.7
2019-Apr-12 17:46N 50°30' W 126°34'413.5
2019-Apr-12 17:30N 50°30' W 126°29'713.3
2019-Apr-12 17:00N 50°30' W 126°18'2411.8 130 / 241019.4 4.2-0.1 8.3
2019-Apr-12 15:00N 50°24' W 125°42'1012.1 130 / 221018.6 3.6-0.4 8.6
2019-Apr-12 14:09N 50°20' W 125°27'310.1
2019-Apr-12 13:49N 50°17' W 125°25'412.4
2019-Apr-12 13:30N 50°14' W 125°23'510.7
2019-Apr-12 13:00N 50°08' W 125°21'3194.3
2019-Apr-12 13:00N 50°06' W 125°24'4 8.1 150 / 181018.3 0.9-0.9 9.1
2019-Apr-12 12:30N 50°06' W 125°18'3 6.2
2019-Apr-12 12:00N 50°04' W 125°15'4257.3
2019-Apr-12 12:00N 50°00' W 125°12'1 1.7 180 / 131018.2 2.8 0.1 9.2
2019-Apr-12 11:30N 50°01' W 125°13'3 6.4
2019-Apr-12 11:00N 49°58' W 125°10'3181.9
2019-Apr-12 11:00N 50°00' W 125°06'4 8.1 180 / 181017.4 3.9 1.0 9.1
2019-Apr-12 10:30N 49°56' W 125°06'3 5.7
2019-Apr-12 10:00N 49°54' W 125°03'2107.0
2019-Apr-12 10:00N 49°54' W 125°00'2 3.9 200 / 171016.9 3.2 0.9 9.1
2019-Apr-12 09:30N 49°52' W 124°59'3 6.1
2019-Apr-12 09:00N 49°51' W 124°55'3204.1
2019-Apr-12 09:00N 49°48' W 124°54'3 7.0 180 / 221016.8 4.4 1.7 9.1
2019-Apr-12 08:30N 49°47' W 124°49'5 9.2
2019-Apr-12 08:00N 49°44' W 124°44'2143.3
2019-Apr-12 08:00N 49°42' W 124°42'3 5.3 170 / 221016.4 4.5 1.3 9.2
2019-Apr-12 07:29N 49°41' W 124°38'4 7.8
2019-Apr-12 07:00N 49°38' W 124°34'31525.6
2019-Apr-12 07:00N 49°36' W 124°36'3 6.9 200 / 221016.6 4.7 0.7 9.6
2019-Apr-12 06:30N 49°34' W 124°32'611.0
2019-Apr-12 06:00N 49°29' W 124°28'31971.5
2019-Apr-12 06:00N 49°30' W 124°24'6 9.9 160 / 231016.1 5.3 1.6 9.4
2019-Apr-12 05:23N 49°26' W 124°18'410.4
2019-Apr-12 05:00N 49°24' W 124°12'313.5 170 / 181015.7 5.4 1.3 9.8
2019-Apr-12 04:47N 49°23' W 124°08'311.1
2019-Apr-12 04:29N 49°21' W 124°04'511.0
2019-Apr-12 04:00N 49°19' W 123°56'2115.3
2019-Apr-12 04:00N 49°18' W 123°54'4 7.8 160 / 201015.4 5.2 1.1 9.7
2019-Apr-12 03:30N 49°17' W 123°49'612.3
2019-Apr-12 03:00N 49°14' W 123°40'3217.1
2019-Apr-12 03:00N 49°12' W 123°36'3 6.2 190 / 141015.0 5.1 1.610.0
2019-Apr-12 02:30N 49°11' W 123°32'713.1
2019-Apr-12 02:00N 49°06' W 123°25'028.2
2019-Apr-12 02:00N 49°06' W 123°24'612.6 200 / 121014.5 4.7 2.2 7.9
2019-Apr-12 01:30N 49°02' W 123°17'713.2
2019-Apr-12 01:00N 48°58' W 123°09'4276.7
2019-Apr-12 01:00N 48°54' W 123°06'3 5.4 210 / 111014.4 5.4 2.7 9.3
2019-Apr-12 00:30N 48°53' W 123°02'612.2
2019-Apr-12 00:00N 48°49' W 122°55'2153.5
2019-Apr-12 00:00N 48°48' W 122°54'510.1 160 / 71014.6 5.4 2.8 9.3
2019-Apr-11 23:27N 48°46' W 122°47'511.9
2019-Apr-11 23:00N 48°41' W 122°42'154.5
2019-Apr-11 23:00N 48°42' W 122°42'612.6 280 / 161015.2 5.7 2.2 8.8
2019-Apr-11 22:30N 48°36' W 122°45'510.4
2019-Apr-11 22:00N 48°31' W 122°44'2113.8
2019-Apr-11 22:00N 48°30' W 122°42'4 8.7 240 / 91015.7 6.6 2.1 9.0
2019-Apr-11 21:29N 48°26' W 122°44'816.8
2019-Apr-11 21:00N 48°18' W 122°48'3224.0 270 / 131015.7 6.4 1.5 9.1
2019-Apr-11 20:59N 48°20' W 122°46'1011.9
2019-Apr-11 20:09N 48°10' W 122°45'216.0
2019-Apr-11 20:00N 48°09' W 122°43'3815.0
2019-Apr-11 20:00N 48°06' W 122°42'4 9.1 140 / 191016.7 6.4 2.0 9.3
2019-Apr-11 19:30N 48°03' W 122°38'714.2
2019-Apr-11 19:00N 47°57' W 122°32'3337.1
2019-Apr-11 19:00N 47°54' W 122°30'3 6.8 130 / 191017.3 6.2 2.510.0
2019-Apr-11 18:30N 47°51' W 122°28'612.7
2019-Apr-11 18:00N 47°45' W 122°26'612.3
2019-Apr-11 17:30N 47°39' W 122°27'3 5.4
2019-Apr-11 17:00N 47°38' W 122°23'2116.9
2019-Apr-11 17:00N 47°36' W 122°24'2 3.4 030 / 61018.6 5.6 1.7 9.1
2019-Apr-11 16:29N 47°38' W 122°23'2 3.5
2019-Apr-11 16:00N 47°36' W 122°24'216.1 330 / 21018.8 5.0 0.3 9.2
2019-Apr-11 15:53N 47°38' W 122°23'0 0.0
2019-Apr-11 15:29N 47°38' W 122°23'0 0.0
2019-Apr-11 14:59N 47°38' W 122°23'0 0.0
2019-Apr-11 14:29N 47°38' W 122°23'0 0.0
2019-Apr-11 13:56N 47°38' W 122°23'0 0.0
2019-Apr-11 13:29N 47°38' W 122°23'0 0.0
2019-Apr-11 12:59N 47°38' W 122°23'0 0.0
2019-Apr-11 12:29N 47°38' W 122°23'0 0.0
2019-Apr-11 11:59N 47°38' W 122°23'0 0.0
2019-Apr-11 11:29N 47°38' W 122°23'0 0.0
2019-Apr-11 10:56N 47°38' W 122°23'0 0.0
2019-Apr-11 10:26N 47°38' W 122°23'0 0.0
2019-Apr-11 09:59N 47°38' W 122°23'0 0.0
2019-Apr-11 09:29N 47°38' W 122°23'0 0.0
2019-Apr-11 08:59N 47°38' W 122°23'0 0.0
2019-Apr-11 08:29N 47°38' W 122°23'0 0.0
2019-Apr-11 07:59N 47°38' W 122°23'0 0.0
2019-Apr-11 07:29N 47°38' W 122°23'0 0.0
2019-Apr-11 06:59N 47°38' W 122°23'0 0.0
2019-Apr-11 06:29N 47°38' W 122°23'0 0.0
2019-Apr-11 05:59N 47°38' W 122°23'0 0.0
2019-Apr-11 05:29N 47°38' W 122°23'0 0.0
2019-Apr-11 04:59N 47°38' W 122°23'0 0.0
2019-Apr-11 04:29N 47°38' W 122°23'0 0.0
2019-Apr-11 03:59N 47°38' W 122°23'0 0.0
2019-Apr-11 03:26N 47°38' W 122°23'0 0.0
2019-Apr-11 02:59N 47°38' W 122°23'0 0.0
2019-Apr-11 02:29N 47°38' W 122°23'0 0.0
2019-Apr-11 01:59N 47°38' W 122°23'0 0.0
2019-Apr-11 01:29N 47°38' W 122°23'0 0.0
2019-Apr-11 00:59N 47°38' W 122°23'0 0.0
2019-Apr-11 00:29N 47°38' W 122°23'0 0.0
2019-Apr-10 23:59N 47°38' W 122°23'0 0.0
2019-Apr-10 23:29N 47°38' W 122°23'0 0.0
2019-Apr-10 22:59N 47°38' W 122°23'0 0.0
2019-Apr-10 22:23N 47°38' W 122°23'0 0.0
2019-Apr-10 21:59N 47°38' W 122°23'0 0.0
2019-Apr-10 21:26N 47°38' W 122°23'0 0.0
2019-Apr-10 20:59N 47°38' W 122°23'0 0.0
2019-Apr-10 20:29N 47°38' W 122°23'0 0.0
2019-Apr-10 19:59N 47°38' W 122°23'0 0.0
2019-Apr-10 19:29N 47°38' W 122°23'0 0.0
2019-Apr-10 18:59N 47°38' W 122°23'0 0.0
2019-Apr-10 18:29N 47°38' W 122°23'0 0.0
2019-Apr-10 17:59N 47°38' W 122°23'0 0.0
2019-Apr-10 17:29N 47°38' W 122°23'0 0.0
2019-Apr-10 16:59N 47°38' W 122°23'0 0.0
2019-Apr-10 16:29N 47°38' W 122°23'0 0.0
2019-Apr-10 15:59N 47°38' W 122°23'0 0.0
2019-Apr-10 15:29N 47°38' W 122°23'0 0.0
2019-Apr-10 14:59N 47°38' W 122°23'0 0.0
2019-Apr-10 14:29N 47°38' W 122°23'0 0.0
2019-Apr-10 13:59N 47°38' W 122°23'0 0.0
2019-Apr-10 13:29N 47°38' W 122°23'0 0.0
2019-Apr-10 12:59N 47°38' W 122°23'0 0.0
2019-Apr-10 12:29N 47°38' W 122°23'0 0.0
2019-Apr-10 11:59N 47°38' W 122°23'0 0.0
2019-Apr-10 11:29N 47°38' W 122°23'0 0.0
2019-Apr-10 10:59N 47°38' W 122°23'0 0.0
2019-Apr-10 10:29N 47°38' W 122°23'0 0.0
2019-Apr-10 09:59N 47°38' W 122°23'0 0.0
2019-Apr-10 09:29N 47°38' W 122°23'0 0.0
2019-Apr-10 08:56N 47°38' W 122°23'0 0.0
2019-Apr-10 08:29N 47°38' W 122°23'0 0.0
2019-Apr-10 07:59N 47°38' W 122°23'0 0.0
2019-Apr-10 07:29N 47°38' W 122°23'0 0.0
2019-Apr-10 06:59N 47°38' W 122°23'0 0.0
2019-Apr-10 06:29N 47°38' W 122°23'0 0.0
2019-Apr-10 05:59N 47°38' W 122°23'0 0.0
2019-Apr-10 05:26N 47°38' W 122°23'0 0.0
2019-Apr-10 04:59N 47°38' W 122°23'0 0.0
2019-Apr-10 04:29N 47°38' W 122°23'0 0.0
2019-Apr-10 03:56N 47°38' W 122°23'0 0.0
2019-Apr-10 03:26N 47°38' W 122°23'0 0.0
2019-Apr-10 02:59N 47°38' W 122°23'0 0.0
2019-Apr-10 02:29N 47°38' W 122°23'2 3.5
2019-Apr-10 02:00N 47°36' W 122°24'2177.0 300 / 71025.4 9.6 0.5 9.9
2019-Apr-10 01:59N 47°38' W 122°23'0 0.0
2019-Apr-10 01:29N 47°38' W 122°23'0 0.7
2019-Apr-10 01:00N 47°37' W 122°23'297.3
2019-Apr-10 01:00N 47°36' W 122°24'4 8.6 320 / 241025.0 7.9 1.4 9.4
2019-Apr-10 00:31N 47°40' W 122°27'510.0
2019-Apr-10 00:01N 47°45' W 122°25'3158.0
2019-Apr-10 00:00N 47°42' W 122°24'3 6.7 280 / 121024.7 8.6 1.9 9.6
2019-Apr-09 23:31N 47°45' W 122°25'1 1.5
2019-Apr-09 23:00N 47°46' W 122°25'2149.3
2019-Apr-09 23:00N 47°48' W 122°24'3 6.8 250 / 151024.5 8.1 0.5 9.4
2019-Apr-09 22:31N 47°45' W 122°25'1 2.8
2019-Apr-09 22:00N 47°43' W 122°25'2115.8
2019-Apr-09 22:00N 47°42' W 122°24'2 4.0 330 / 21024.3 7.9 0.5 9.7
2019-Apr-09 21:30N 47°44' W 122°25'1 2.8
2019-Apr-09 21:01N 47°45' W 122°25'3169.7
2019-Apr-09 21:00N 47°48' W 122°24'2 3.6 300 / 71023.9 7.1 1.6 9.5
2019-Apr-09 20:31N 47°46' W 122°25'0 1.0
2019-Apr-09 20:01N 47°47' W 122°25'178.7
2019-Apr-09 20:00N 47°48' W 122°24'2 3.1 110 / 61023.7 6.4 1.9 9.3
2019-Apr-09 19:31N 47°47' W 122°25'0 0.6
2019-Apr-09 19:01N 47°46' W 122°25'2101.2
2019-Apr-09 19:00N 47°48' W 122°24'3 6.2 140 / 81023.2 6.7 2.6 9.2
2019-Apr-09 18:31N 47°45' W 122°25'2 3.1
2019-Apr-09 18:01N 47°44' W 122°25'2100.3
2019-Apr-09 18:00N 47°42' W 122°24'3 5.7 360 / 111022.2 5.5 2.1 9.3
2019-Apr-09 17:31N 47°43' W 122°28'2 4.6
2019-Apr-09 17:01N 47°43' W 122°31'0 0.0
2019-Apr-09 16:30N 47°43' W 122°31'0 0.0
2019-Apr-09 16:01N 47°43' W 122°31'292.3
2019-Apr-09 16:00N 47°42' W 122°30'2 3.2 090 / 51020.5 4.4 1.8 9.3
2019-Apr-09 15:31N 47°43' W 122°31'0 0.0
2019-Apr-09 15:01N 47°43' W 122°31'0 0.0
2019-Apr-09 14:30N 47°43' W 122°31'0 0.0
2019-Apr-09 14:01N 47°43' W 122°31'0 0.0
2019-Apr-09 13:31N 47°43' W 122°31'0 0.0
2019-Apr-09 13:01N 47°43' W 122°31'293.8
2019-Apr-09 13:00N 47°42' W 122°30'2 3.2 250 / 11 4.8 1.2 9.3
2019-Apr-09 12:30N 47°43' W 122°31'0 0.0
2019-Apr-09 12:01N 47°43' W 122°31'0 0.0
2019-Apr-09 11:31N 47°43' W 122°31'0 0.0
2019-Apr-09 11:01N 47°43' W 122°31'0 0.0
2019-Apr-09 10:30N 47°43' W 122°31'0 0.0
2019-Apr-09 10:01N 47°43' W 122°31'293.8
2019-Apr-09 10:00N 47°42' W 122°30'2 3.2 240 / 9 4.8 2.2 9.4
2019-Apr-09 09:31N 47°43' W 122°31'0 0.0
2019-Apr-09 09:00N 47°43' W 122°31'0 0.0
2019-Apr-09 08:30N 47°43' W 122°31'0 0.0
2019-Apr-09 08:01N 47°43' W 122°31'293.8
2019-Apr-09 08:00N 47°42' W 122°30'2 3.2 250 / 6 5.6 3.5 9.5
2019-Apr-09 07:30N 47°43' W 122°31'0 0.0
2019-Apr-09 07:01N 47°43' W 122°31'293.8
2019-Apr-09 07:00N 47°42' W 122°30'2 3.2 5.0 3.1 9.7
2019-Apr-09 06:30N 47°43' W 122°31'0 0.0
2019-Apr-09 06:00N 47°43' W 122°31'2104.2
2019-Apr-09 06:00N 47°42' W 122°30'1 2.9 140 / 1 5.1 2.8 9.6
2019-Apr-09 05:30N 47°43' W 122°31'3 6.8
2019-Apr-09 05:00N 47°42' W 122°26'2109.7
2019-Apr-09 05:00N 47°42' W 122°24'1 1.4 140 / 13 5.5 2.5 9.3
2019-Apr-09 04:31N 47°41' W 122°25'1 1.5
2019-Apr-09 04:00N 47°42' W 122°26'170.8
2019-Apr-09 04:00N 47°42' W 122°24'1 2.7 290 / 2 5.5 2.5 9.3
2019-Apr-09 03:30N 47°43' W 122°25'0 0.9
2019-Apr-09 03:00N 47°44' W 122°25'2106.0
2019-Apr-09 03:00N 47°42' W 122°24'1 2.3 240 / 14 5.5 3.2 9.1
2019-Apr-09 02:30N 47°43' W 122°25'1 3.0
2019-Apr-09 02:00N 47°44' W 122°25'2140.9
2019-Apr-09 02:00N 47°42' W 122°24'3 7.1 350 / 8 5.8 3.2 9.2
2019-Apr-09 01:30N 47°45' W 122°25'1 1.4
2019-Apr-09 01:01N 47°45' W 122°25'1 2.5
2019-Apr-09 00:31N 47°43' W 122°25'1 2.4
2019-Apr-09 00:01N 47°42' W 122°25'155.7
2019-Apr-09 00:00N 47°42' W 122°24'1 2.1 150 / 6 8.0 3.7 9.6
2019-Apr-08 23:31N 47°42' W 122°25'1 2.3
2019-Apr-08 23:01N 47°43' W 122°25'290.2
2019-Apr-08 23:00N 47°42' W 122°24'2 4.9 070 / 6 9.2 3.210.2
2019-Apr-08 22:30N 47°44' W 122°25'0 0.3
2019-Apr-08 22:00N 47°44' W 122°25'2138.3
2019-Apr-08 22:00N 47°42' W 122°24'3 6.1 070 / 3 9.4 3.7 9.7
2019-Apr-08 21:31N 47°45' W 122°24'0 0.3
2019-Apr-08 21:00N 47°45' W 122°24'3174.0
2019-Apr-08 21:00N 47°42' W 122°24'2 3.9 100 / 8 7.2 3.6 9.5
2019-Apr-08 20:31N 47°44' W 122°24'1 2.1
2019-Apr-08 20:01N 47°45' W 122°24'3177.3
2019-Apr-08 20:00N 47°42' W 122°24'3 5.7 090 / 10 6.6 3.2 9.4
2019-Apr-08 19:31N 47°45' W 122°25'1 1.3
2019-Apr-08 19:01N 47°45' W 122°24'3159.3
2019-Apr-08 19:00N 47°48' W 122°24'3 5.5 100 / 7 6.0 2.3 9.2
2019-Apr-08 18:30N 47°45' W 122°24'1 2.6
2019-Apr-08 18:01N 47°44' W 122°24'2124.3
2019-Apr-08 18:00N 47°42' W 122°24'2 3.9 200 / 3 6.3 2.5 9.1
2019-Apr-08 17:30N 47°41' W 122°26'2 4.0
2019-Apr-08 17:01N 47°39' W 122°26'2 4.5
2019-Apr-08 16:31N 47°38' W 122°23'2 3.0
2019-Apr-08 16:00N 47°36' W 122°24'2451.4 130 / 2 5.6 2.1 9.5
2019-Apr-08 15:59N 47°38' W 122°23'0 0.0
2019-Apr-08 15:29N 47°38' W 122°23'2 3.5
2019-Apr-08 15:00N 47°36' W 122°24'2351.1 260 / 2 5.0 1.4 9.5
2019-Apr-08 14:59N 47°38' W 122°23'0 0.0
2019-Apr-08 14:29N 47°38' W 122°23'0 0.0
2019-Apr-08 13:59N 47°38' W 122°23'0 0.0
2019-Apr-08 13:29N 47°38' W 122°23'0 0.0
2019-Apr-08 12:59N 47°38' W 122°23'0 0.0
2019-Apr-08 12:29N 47°38' W 122°23'0 0.0
2019-Apr-08 11:59N 47°38' W 122°23'0 0.0
2019-Apr-08 11:29N 47°38' W 122°23'0 0.0
2019-Apr-08 10:59N 47°38' W 122°23'0 0.0
2019-Apr-08 10:29N 47°38' W 122°23'0 0.0
2019-Apr-08 09:59N 47°38' W 122°23'0 0.0
2019-Apr-08 09:26N 47°38' W 122°23'0 0.0
2019-Apr-08 08:59N 47°38' W 122°23'0 0.0
2019-Apr-08 08:29N 47°38' W 122°23'0 0.0
2019-Apr-08 07:56N 47°38' W 122°23'0 0.0
2019-Apr-08 07:29N 47°38' W 122°23'0 0.0
2019-Apr-08 06:59N 47°38' W 122°23'0 0.0
2019-Apr-08 06:29N 47°38' W 122°23'0 0.0
2019-Apr-08 05:59N 47°38' W 122°23'0 0.0
2019-Apr-08 05:29N 47°38' W 122°23'0 0.0
2019-Apr-08 04:59N 47°38' W 122°23'0 0.0
2019-Apr-08 04:29N 47°38' W 122°23'0 0.0
2019-Apr-08 03:59N 47°38' W 122°23'0 0.0
2019-Apr-08 03:29N 47°38' W 122°23'0 0.0
2019-Apr-08 02:59N 47°38' W 122°23'0 0.0
2019-Apr-08 02:29N 47°38' W 122°23'0 0.0
2019-Apr-08 01:59N 47°38' W 122°23'0 0.0
2019-Apr-08 01:29N 47°38' W 122°23'0 0.0
2019-Apr-08 00:59N 47°38' W 122°23'0 0.0
2019-Apr-08 00:29N 47°38' W 122°23'0 0.0
2019-Apr-07 23:59N 47°38' W 122°23'0 0.0
2019-Apr-07 23:26N 47°38' W 122°23'0 0.0
2019-Apr-07 22:59N 47°38' W 122°23'0 0.0
2019-Apr-07 22:29N 47°38' W 122°23'0 0.0
2019-Apr-07 21:59N 47°38' W 122°23'0 0.0
2019-Apr-07 21:26N 47°38' W 122°23'0 0.0
2019-Apr-07 20:59N 47°38' W 122°23'0 0.0
2019-Apr-07 20:29N 47°38' W 122°23'0 0.0
2019-Apr-07 19:59N 47°38' W 122°23'0 0.0
2019-Apr-07 19:29N 47°38' W 122°23'0 0.0
2019-Apr-07 18:59N 47°38' W 122°23'0 0.0
2019-Apr-07 18:29N 47°38' W 122°23'0 0.6
2019-Apr-07 18:00N 47°37' W 122°23'1 1.2
2019-Apr-07 17:30N 47°38' W 122°24'3 6.6
2019-Apr-07 17:01N 47°40' W 122°27'5 9.9
2019-Apr-07 16:30N 47°45' W 122°24'1 1.2
2019-Apr-07 16:00N 47°44' W 122°25'1 1.6
2019-Apr-07 15:31N 47°44' W 122°25'1 1.4
2019-Apr-07 15:00N 47°43' W 122°25'0 0.1
2019-Apr-07 14:30N 47°43' W 122°25'0 0.0
2019-Apr-07 14:01N 47°43' W 122°25'0 0.0
2019-Apr-07 13:30N 47°43' W 122°25'0 0.0
2019-Apr-07 13:00N 47°43' W 122°25'0 0.0
2019-Apr-07 12:30N 47°43' W 122°25'0 0.0
2019-Apr-07 12:00N 47°43' W 122°25'0 0.0
2019-Apr-07 11:30N 47°43' W 122°25'0 0.0
2019-Apr-07 11:00N 47°43' W 122°25'0 0.0
2019-Apr-07 10:30N 47°43' W 122°25'0 0.0
2019-Apr-07 10:01N 47°43' W 122°25'0 0.0
2019-Apr-07 09:30N 47°43' W 122°25'0 0.0
2019-Apr-07 09:01N 47°43' W 122°25'0 0.0
2019-Apr-07 08:31N 47°43' W 122°25'0 0.0
2019-Apr-07 08:01N 47°43' W 122°25'0 0.6
2019-Apr-07 07:31N 47°43' W 122°25'2 4.8
2019-Apr-07 07:01N 47°45' W 122°25'1 2.7
2019-Apr-07 06:31N 47°44' W 122°25'2 3.2
2019-Apr-07 06:00N 47°42' W 122°25'1 2.8
2019-Apr-07 05:30N 47°44' W 122°25'1 1.4
2019-Apr-07 05:00N 47°45' W 122°25'1 1.2
2019-Apr-07 04:31N 47°44' W 122°25'1 2.3
2019-Apr-07 04:01N 47°43' W 122°24'  
Track history (hours):
 
Tides and Currents Weather Stations Pressure Air Temp Water Temp Dewpoint Dewpoint Depression Visibility Wind Speed Wind Dir Waves Ship Positions

Oceanographic research ship Oscar Dyson (USA)

Ship's website: http://www.moc.noaa.gov/od/

Detailed information on ship capabilities available from University of Delaware's Ocean Information Center and ARCUS's ALIAS (Arctic Logistics Information and Support) project.

Last reported at 2019-Apr-17 04:00 UTC. Time now 2019-Apr-18 11:07 UTC.
Position N 57°48' W 152°24'.

Type: Other ship. MMSI: 368926382.

Wind from 300 at 2 knots

Barometer 999.3 mb
Air temperature 7.2 ° C
Dewpoint 2.0 ° C
Water temperature 6.4 ° C

Date/timePositionNaut miles runAvg speedWind from/ knotsBaromVisibWave heightAir tempDewpointWater temp
2019-Apr-17 04:00N 57°48' W 152°24'6 6.0 300 / 2999.3 7.2 2.0 6.4
2019-Apr-17 03:00N 57°42' W 152°24'10 9.6 090 / 15999.2 7.4 3.0 6.3
2019-Apr-17 02:00N 57°42' W 152°06'10 9.6 100 / 19999.4 6.6 2.1 6.5
2019-Apr-17 01:00N 57°42' W 151°48'1111.3 140 / 13999.6 6.6 2.2 6.3
2019-Apr-17 00:00N 57°48' W 151°30'10 9.6 140 / 15999.6 6.7 3.2 6.4
2019-Apr-16 23:00N 57°48' W 151°12'10 9.6 150 / 18999.0 6.8 3.2 6.5
2019-Apr-16 22:00N 57°48' W 150°54'10 9.6 140 / 18998.6 7.2 3.4 6.4
2019-Apr-16 21:00N 57°48' W 150°36'10 9.6 140 / 12998.4 7.6 2.9 6.5
2019-Apr-16 20:00N 57°48' W 150°18'1312.8 140 / 10997.9 8.2 3.3 6.7
2019-Apr-16 19:00N 57°48' W 149°54'10 9.6 140 / 9997.0 7.9 3.2 6.6
2019-Apr-16 18:00N 57°48' W 149°36'10 9.6 130 / 4996.2 8.5 3.7 6.6
2019-Apr-16 17:00N 57°48' W 149°18'10 9.6 210 / 5995.6 7.7 3.7 6.5
2019-Apr-16 16:00N 57°48' W 149°00'1312.8 220 / 3995.2 7.6 3.5 6.4
2019-Apr-16 15:00N 57°48' W 148°36'10 9.6 250 / 4995.0 7.3 3.4 6.4
2019-Apr-16 14:00N 57°48' W 148°18'10 9.6 260 / 5994.8 7.3 3.6 6.4
2019-Apr-16 13:00N 57°48' W 148°00'1111.3 290 / 5994.4 7.6 4.2 6.5
2019-Apr-16 12:00N 57°54' W 147°42'10 9.6 100 / 4994.4 6.6 3.7 6.5
2019-Apr-16 11:00N 57°54' W 147°24'10 9.6 060 / 9994.5 6.4 3.1 6.5
2019-Apr-16 10:00N 57°54' W 147°06'1312.8 060 / 9994.8 6.5 3.1 6.2
2019-Apr-16 09:00N 57°54' W 146°42'10 9.6 050 / 7994.5 6.6 4.2 6.2
2019-Apr-16 08:00N 57°54' W 146°24'10 9.6 060 / 6994.9 7.1 3.8 6.5
2019-Apr-16 07:00N 57°54' W 146°06'10 9.6 080 / 10995.4 7.2 3.1 6.5
2019-Apr-16 06:00N 57°54' W 145°48'1312.8 060 / 9995.8 6.0 2.2 6.4
2019-Apr-16 05:00N 57°54' W 145°24'10 9.6 070 / 9996.0 6.6 2.7 6.5
2019-Apr-16 04:00N 57°54' W 145°06'10 9.6 070 / 11996.5 7.5 2.6 6.5
2019-Apr-16 03:00N 57°54' W 144°48'10 9.6 080 / 10997.6 8.4 3.0 6.6
2019-Apr-16 02:00N 57°54' W 144°30'6 6.4 060 / 12998.3 8.0 3.1 6.6
2019-Apr-16 01:00N 57°54' W 144°18'1414.1 010 / 9998.8 8.1 3.5 6.6
2019-Apr-16 00:00N 58°00' W 143°54'1312.7 090 / 14999.8 7.7 3.3 6.5
2019-Apr-15 23:00N 58°00' W 143°30'10 9.5 090 / 181000.4 7.7 3.7 6.5
2019-Apr-15 22:00N 58°00' W 143°12'1312.7 090 / 171000.6 6.7 2.3 6.4
2019-Apr-15 21:00N 58°00' W 142°48'1312.7 090 / 181000.6 7.0 2.7 6.3
2019-Apr-15 20:00N 58°00' W 142°24'1312.7 100 / 181000.5 6.1 2.4 6.5
2019-Apr-15 19:00N 58°00' W 142°00'1312.7 100 / 141000.6 6.0 3.5 6.7
2019-Apr-15 18:00N 58°00' W 141°36'1312.7 080 / 161001.0 6.2 3.1 6.8
2019-Apr-15 17:00N 58°00' W 141°12'1312.7 070 / 191001.2 6.3 3.2 6.6
2019-Apr-15 16:00N 58°00' W 140°48'1312.7 070 / 221001.5 6.7 3.5 6.6
2019-Apr-15 15:00N 58°00' W 140°24'1414.0 060 / 191001.8 6.7 3.6 6.8
2019-Apr-15 14:00N 58°06' W 140°00'1312.7 080 / 211002.3 5.9 3.1 6.8
2019-Apr-15 13:00N 58°06' W 139°36'1312.7 070 / 171002.9 6.2 3.0 6.8
2019-Apr-15 12:00N 58°06' W 139°12'1312.7 060 / 191003.1 7.0 3.4 6.7
2019-Apr-15 11:00N 58°06' W 138°48'1312.7 060 / 211003.7 7.0 3.1 7.0
2019-Apr-15 10:00N 58°06' W 138°24'1312.7 060 / 231004.0 7.6 2.2 7.2
2019-Apr-15 09:00N 58°06' W 138°00'10 9.5 070 / 191004.2 6.6 2.6 7.3
2019-Apr-15 08:00N 58°06' W 137°42'1312.7 070 / 141004.2 8.2 2.3 7.0
2019-Apr-15 07:00N 58°06' W 137°18'1312.7 080 / 131004.6 7.1 3.1 7.2
2019-Apr-15 06:00N 58°06' W 136°54'2211.2 090 / 101004.8 7.3 3.3 7.2
2019-Apr-15 04:00N 58°18' W 136°18'1 9.1 110 / 121004.8 6.3 2.7 6.3
2019-Apr-15 03:50N 58°18' W 136°15'411.5
2019-Apr-15 03:30N 58°19' W 136°08'510.3
2019-Apr-15 03:00N 58°20' W 135°59'3202.5
2019-Apr-15 03:00N 58°18' W 135°54'3 6.3 150 / 171004.7 6.0 1.3 6.1
2019-Apr-15 02:30N 58°19' W 135°48'611.6
2019-Apr-15 02:00N 58°17' W 135°38'1108.9
2019-Apr-15 02:00N 58°18' W 135°36'811.7 150 / 211004.8 6.9 2.9 6.3
2019-Apr-15 01:18N 58°14' W 135°23'1713.1
2019-Apr-15 00:00N 58°06' W 134°54'1212.4 180 / 121004.6 4.0-2.5 6.5
2019-Apr-14 23:00N 57°54' W 134°48'1212.0 230 / 121004.5 4.4-1.8 6.7
2019-Apr-14 22:00N 57°42' W 134°48'1212.4 180 / 131004.4 4.4-1.7 6.6
2019-Apr-14 21:00N 57°30' W 134°42'1212.0 180 / 171004.4 3.0-2.2 6.2
2019-Apr-14 20:00N 57°18' W 134°42'1212.0 230 / 191003.9 4.1-3.2 6.5
2019-Apr-14 19:00N 57°06' W 134°42'1212.4 200 / 191004.0 2.7-1.5 6.5
2019-Apr-14 18:00N 56°54' W 134°36'1212.4 180 / 231003.5 2.8-1.6 7.0
2019-Apr-14 17:00N 56°42' W 134°30'1212.4 210 / 221003.4 3.1-2.9 7.0
2019-Apr-14 16:00N 56°30' W 134°24'1212.0 200 / 201003.4 3.2-2.9 7.0
2019-Apr-14 15:00N 56°18' W 134°24'1212.5 220 / 141003.4 2.3-1.7 7.2
2019-Apr-14 14:00N 56°06' W 134°18'1211.7 180 / 311003.2 3.2-2.0 7.1
2019-Apr-14 13:00N 56°00' W 134°00'1413.7 120 / 251003.3 3.6-1.5 6.7
2019-Apr-14 12:00N 56°12' W 133°48'1212.5 060 / 181003.0 2.2-1.8 6.8
2019-Apr-14 11:00N 56°24' W 133°42'1313.3 070 / 281002.6 3.5-1.6 6.6
2019-Apr-14 10:00N 56°24' W 133°18'1211.6 120 / 261002.5 3.1-1.4 6.5
2019-Apr-14 09:00N 56°18' W 133°00'9 9.0 150 / 171002.3 2.8-2.0 6.7
2019-Apr-14 08:00N 56°12' W 132°48'1413.7 160 / 261001.8 3.2-1.0 7.1
2019-Apr-14 07:00N 56°00' W 132°36'1413.8 170 / 291001.2 4.1-2.5 7.2
2019-Apr-14 06:00N 55°48' W 132°24'1212.5 180 / 271000.7 4.5-3.5 7.5
2019-Apr-14 05:00N 55°36' W 132°18'9 9.1 180 / 341000.3 4.5-4.3 7.5
2019-Apr-14 04:00N 55°30' W 132°06'1413.8 180 / 32999.4 5.6-1.3 8.1
2019-Apr-14 03:00N 55°18' W 131°54'1212.5 180 / 20999.4 5.1-1.6 7.6
2019-Apr-14 02:00N 55°06' W 131°48'1212.5 170 / 19999.2 4.6-0.9 7.6
2019-Apr-14 01:00N 54°54' W 131°42'1212.0 170 / 25999.3 4.6-1.1 7.8
2019-Apr-14 00:00N 54°48' W 131°24'1212.0 140 / 22999.3 3.2-1.7 7.6
2019-Apr-13 23:00N 54°42' W 131°06'711.0 160 / 20998.9 3.7-1.2 7.8
2019-Apr-13 22:19N 54°42' W 130°53'619.8
2019-Apr-13 22:00N 54°42' W 130°42'223.4 180 / 30998.4 3.6-0.7 7.8
2019-Apr-13 21:53N 54°40' W 130°45'513.2
2019-Apr-13 21:30N 54°37' W 130°38'612.6
2019-Apr-13 21:00N 54°31' W 130°35'1123.1
2019-Apr-13 21:00N 54°30' W 130°36'611.3 240 / 29997.6 3.7-0.8 7.8
2019-Apr-13 20:30N 54°24' W 130°36'612.4
2019-Apr-13 20:01N 54°18' W 130°35'136.5
2019-Apr-13 20:00N 54°18' W 130°36'713.5 190 / 22997.5 3.6-0.6 7.5
2019-Apr-13 19:30N 54°13' W 130°29'713.1
2019-Apr-13 19:00N 54°07' W 130°23'185.3
2019-Apr-13 19:00N 54°06' W 130°24'612.2 150 / 17997.2 3.9-0.5 7.6
2019-Apr-13 18:30N 54°03' W 130°15'612.9
2019-Apr-13 18:00N 53°57' W 130°12'3178.3
2019-Apr-13 18:00N 53°54' W 130°12'5 9.3 150 / 8996.6 3.6-0.0 7.4
2019-Apr-13 17:30N 53°53' W 130°05'815.3
2019-Apr-13 17:00N 53°48' W 129°54'268.2 140 / 9996.8 1.6-1.1 7.5
2019-Apr-13 16:58N 53°47' W 129°57'1414.8
2019-Apr-13 16:00N 53°36' W 129°42'9 9.3 180 / 19997.7 0.5-1.9 7.7
2019-Apr-13 15:00N 53°30' W 129°30'1616.1 160 / 18998.0 1.5-1.9 8.0
2019-Apr-13 14:00N 53°18' W 129°12'1110.8 130 / 12998.8 2.9-1.9 8.5
2019-Apr-13 13:00N 53°18' W 128°54'1616.1 160 / 131001.0 2.4-0.7 8.5
2019-Apr-13 12:00N 53°06' W 128°36'1312.5 150 / 191003.4 1.8-1.8 8.2
2019-Apr-13 11:00N 52°54' W 128°30'1312.5 180 / 191005.6 2.1-0.5 8.1
2019-Apr-13 10:00N 52°42' W 128°36'7 7.0 190 / 101007.2 2.7-0.4 8.2
2019-Apr-13 09:00N 52°36' W 128°30'810.3 180 / 131008.7 3.6-0.9 8.4
2019-Apr-13 08:11N 52°28' W 128°27'212.4
2019-Apr-13 08:00N 52°26' W 128°27'2175.2
2019-Apr-13 08:00N 52°24' W 128°30'4 7.7 300 / 31009.4 4.7-0.3 8.8
2019-Apr-13 07:26N 52°20' W 128°32'511.6
2019-Apr-13 07:00N 52°18' W 128°24'282.3 110 / 271010.5 4.5-0.2 9.2
2019-Apr-13 06:58N 52°16' W 128°26'612.7
2019-Apr-13 06:28N 52°14' W 128°16'612.3
2019-Apr-13 06:00N 52°13' W 128°07'172.7
2019-Apr-13 06:00N 52°12' W 128°06'3 5.3 150 / 131012.1 3.5 1.0 9.6
2019-Apr-13 05:30N 52°10' W 128°08'2 3.9
2019-Apr-13 05:00N 52°08' W 128°08'2161.4
2019-Apr-13 05:00N 52°06' W 128°06'1 2.6 170 / 71012.6 5.7 0.7 9.1
2019-Apr-13 04:30N 52°05' W 128°06'5 9.1
2019-Apr-13 03:54N 52°04' W 127°57'4 9.7
2019-Apr-13 03:30N 52°00' W 127°56'611.2
2019-Apr-13 03:00N 51°55' W 127°56'1135.8
2019-Apr-13 03:00N 51°54' W 127°54'611.6 180 / 221014.4 5.3 1.6 9.5
2019-Apr-13 02:30N 51°49' W 127°56'612.3
2019-Apr-13 02:01N 51°42' W 127°55'159.8
2019-Apr-13 02:00N 51°42' W 127°54'612.3 200 / 221015.6 7.0 0.6 9.9
2019-Apr-13 01:30N 51°36' W 127°53'612.8
2019-Apr-13 01:01N 51°30' W 127°51'2121.4
2019-Apr-13 01:00N 51°30' W 127°48'713.7 170 / 191016.6 5.8 0.7 9.5
2019-Apr-13 00:30N 51°24' W 127°51'612.1
2019-Apr-13 00:01N 51°18' W 127°54'0 4.7
2019-Apr-13 00:00N 51°18' W 127°54'612.8 190 / 201017.8 5.5 0.1 9.3
2019-Apr-12 23:30N 51°12' W 127°54'611.8
2019-Apr-12 23:01N 51°06' W 127°53'611.8
2019-Apr-12 22:30N 51°01' W 127°48'612.5
2019-Apr-12 22:00N 50°56' W 127°41'2134.1
2019-Apr-12 22:00N 50°54' W 127°42'612.0 180 / 261018.4 5.4 0.4 9.0
2019-Apr-12 21:30N 50°52' W 127°33'712.9
2019-Apr-12 21:00N 50°49' W 127°24'1180.0
2019-Apr-12 21:00N 50°48' W 127°24'612.5 140 / 191019.0 5.3-1.3 9.2
2019-Apr-12 20:30N 50°47' W 127°15'1020.4
2019-Apr-12 20:00N 50°42' W 127°00'326.8 140 / 211019.2 4.8-1.5 8.7
2019-Apr-12 19:53N 50°44' W 127°03'712.8
2019-Apr-12 19:22N 50°42' W 126°53'717.1
2019-Apr-12 19:00N 50°36' W 126°48'2199.6 160 / 131019.4 4.4-0.3 8.6
2019-Apr-12 18:59N 50°38' W 126°47'5 9.1
2019-Apr-12 18:27N 50°35' W 126°42'7 9.7
2019-Apr-12 17:46N 50°30' W 126°34'413.5
2019-Apr-12 17:30N 50°30' W 126°29'713.3
2019-Apr-12 17:00N 50°30' W 126°18'2411.8 130 / 241019.4 4.2-0.1 8.3
2019-Apr-12 15:00N 50°24' W 125°42'1012.1 130 / 221018.6 3.6-0.4 8.6
2019-Apr-12 14:09N 50°20' W 125°27'310.1
2019-Apr-12 13:49N 50°17' W 125°25'412.4
2019-Apr-12 13:30N 50°14' W 125°23'510.7
2019-Apr-12 13:00N 50°08' W 125°21'3194.3
2019-Apr-12 13:00N 50°06' W 125°24'4 8.1 150 / 181018.3 0.9-0.9 9.1
2019-Apr-12 12:30N 50°06' W 125°18'3 6.2
2019-Apr-12 12:00N 50°04' W 125°15'4257.3
2019-Apr-12 12:00N 50°00' W 125°12'1 1.7 180 / 131018.2 2.8 0.1 9.2
2019-Apr-12 11:30N 50°01' W 125°13'3 6.4
2019-Apr-12 11:00N 49°58' W 125°10'3181.9
2019-Apr-12 11:00N 50°00' W 125°06'4 8.1 180 / 181017.4 3.9 1.0 9.1
2019-Apr-12 10:30N 49°56' W 125°06'3 5.7
2019-Apr-12 10:00N 49°54' W 125°03'2107.0
2019-Apr-12 10:00N 49°54' W 125°00'2 3.9 200 / 171016.9 3.2 0.9 9.1
2019-Apr-12 09:30N 49°52' W 124°59'3 6.1
2019-Apr-12 09:00N 49°51' W 124°55'3204.1
2019-Apr-12 09:00N 49°48' W 124°54'3 7.0 180 / 221016.8 4.4 1.7 9.1
2019-Apr-12 08:30N 49°47' W 124°49'5 9.2
2019-Apr-12 08:00N 49°44' W 124°44'2143.3
2019-Apr-12 08:00N 49°42' W 124°42'3 5.3 170 / 221016.4 4.5 1.3 9.2
2019-Apr-12 07:29N 49°41' W 124°38'4 7.8
2019-Apr-12 07:00N 49°38' W 124°34'31525.6
2019-Apr-12 07:00N 49°36' W 124°36'3 6.9 200 / 221016.6 4.7 0.7 9.6
2019-Apr-12 06:30N 49°34' W 124°32'611.0
2019-Apr-12 06:00N 49°29' W 124°28'31971.5
2019-Apr-12 06:00N 49°30' W 124°24'6 9.9 160 / 231016.1 5.3 1.6 9.4
2019-Apr-12 05:23N 49°26' W 124°18'410.4
2019-Apr-12 05:00N 49°24' W 124°12'313.5 170 / 181015.7 5.4 1.3 9.8
2019-Apr-12 04:47N 49°23' W 124°08'311.1
2019-Apr-12 04:29N 49°21' W 124°04'511.0
2019-Apr-12 04:00N 49°19' W 123°56'2115.3
2019-Apr-12 04:00N 49°18' W 123°54'4 7.8 160 / 201015.4 5.2 1.1 9.7
2019-Apr-12 03:30N 49°17' W 123°49'612.3
2019-Apr-12 03:00N 49°14' W 123°40'3217.1
2019-Apr-12 03:00N 49°12' W 123°36'3 6.2 190 / 141015.0 5.1 1.610.0
2019-Apr-12 02:30N 49°11' W 123°32'713.1
2019-Apr-12 02:00N 49°06' W 123°25'028.2
2019-Apr-12 02:00N 49°06' W 123°24'612.6 200 / 121014.5 4.7 2.2 7.9
2019-Apr-12 01:30N 49°02' W 123°17'713.2
2019-Apr-12 01:00N 48°58' W 123°09'4276.7
2019-Apr-12 01:00N 48°54' W 123°06'3 5.4 210 / 111014.4 5.4 2.7 9.3
2019-Apr-12 00:30N 48°53' W 123°02'612.2
2019-Apr-12 00:00N 48°49' W 122°55'2153.5
2019-Apr-12 00:00N 48°48' W 122°54'510.1 160 / 71014.6 5.4 2.8 9.3
2019-Apr-11 23:27N 48°46' W 122°47'511.9
2019-Apr-11 23:00N 48°41' W 122°42'154.5
2019-Apr-11 23:00N 48°42' W 122°42'612.6 280 / 161015.2 5.7 2.2 8.8
2019-Apr-11 22:30N 48°36' W 122°45'510.4
2019-Apr-11 22:00N 48°31' W 122°44'2113.8
2019-Apr-11 22:00N 48°30' W 122°42'4 8.7 240 / 91015.7 6.6 2.1 9.0
2019-Apr-11 21:29N 48°26' W 122°44'816.8
2019-Apr-11 21:00N 48°18' W 122°48'3224.0 270 / 131015.7 6.4 1.5 9.1
2019-Apr-11 20:59N 48°20' W 122°46'1011.9
2019-Apr-11 20:09N 48°10' W 122°45'216.0
2019-Apr-11 20:00N 48°09' W 122°43'3815.0
2019-Apr-11 20:00N 48°06' W 122°42'4 9.1 140 / 191016.7 6.4 2.0 9.3
2019-Apr-11 19:30N 48°03' W 122°38'714.2
2019-Apr-11 19:00N 47°57' W 122°32'3337.1
2019-Apr-11 19:00N 47°54' W 122°30'3 6.8 130 / 191017.3 6.2 2.510.0
2019-Apr-11 18:30N 47°51' W 122°28'612.7
2019-Apr-11 18:00N 47°45' W 122°26'612.3
2019-Apr-11 17:30N 47°39' W 122°27'3 5.4
2019-Apr-11 17:00N 47°38' W 122°23'2116.9
2019-Apr-11 17:00N 47°36' W 122°24'2 3.4 030 / 61018.6 5.6 1.7 9.1
2019-Apr-11 16:29N 47°38' W 122°23'2 3.5
2019-Apr-11 16:00N 47°36' W 122°24'216.1 330 / 21018.8 5.0 0.3 9.2
2019-Apr-11 15:53N 47°38' W 122°23'0 0.0
2019-Apr-11 15:29N 47°38' W 122°23'0 0.0
2019-Apr-11 14:59N 47°38' W 122°23'0 0.0
2019-Apr-11 14:29N 47°38' W 122°23'0 0.0
2019-Apr-11 13:56N 47°38' W 122°23'0 0.0
2019-Apr-11 13:29N 47°38' W 122°23'0 0.0
2019-Apr-11 12:59N 47°38' W 122°23'0 0.0
2019-Apr-11 12:29N 47°38' W 122°23'0 0.0
2019-Apr-11 11:59N 47°38' W 122°23'0 0.0
2019-Apr-11 11:29N 47°38' W 122°23'0 0.0
2019-Apr-11 10:56N 47°38' W 122°23'0 0.0
2019-Apr-11 10:26N 47°38' W 122°23'0 0.0
2019-Apr-11 09:59N 47°38' W 122°23'0 0.0
2019-Apr-11 09:29N 47°38' W 122°23'0 0.0
2019-Apr-11 08:59N 47°38' W 122°23'0 0.0
2019-Apr-11 08:29N 47°38' W 122°23'0 0.0
2019-Apr-11 07:59N 47°38' W 122°23'0 0.0
2019-Apr-11 07:29N 47°38' W 122°23'0 0.0
2019-Apr-11 06:59N 47°38' W 122°23'0 0.0
2019-Apr-11 06:29N 47°38' W 122°23'0 0.0
2019-Apr-11 05:59N 47°38' W 122°23'0 0.0
2019-Apr-11 05:29N 47°38' W 122°23'0 0.0
2019-Apr-11 04:59N 47°38' W 122°23'0 0.0
2019-Apr-11 04:29N 47°38' W 122°23'0 0.0
2019-Apr-11 03:59N 47°38' W 122°23'0 0.0
2019-Apr-11 03:26N 47°38' W 122°23'0 0.0
2019-Apr-11 02:59N 47°38' W 122°23'0 0.0
2019-Apr-11 02:29N 47°38' W 122°23'0 0.0
2019-Apr-11 01:59N 47°38' W 122°23'0 0.0
2019-Apr-11 01:29N 47°38' W 122°23'0 0.0
2019-Apr-11 00:59N 47°38' W 122°23'0 0.0
2019-Apr-11 00:29N 47°38' W 122°23'0 0.0
2019-Apr-10 23:59N 47°38' W 122°23'0 0.0
2019-Apr-10 23:29N 47°38' W 122°23'0 0.0
2019-Apr-10 22:59N 47°38' W 122°23'0 0.0
2019-Apr-10 22:23N 47°38' W 122°23'0 0.0
2019-Apr-10 21:59N 47°38' W 122°23'0 0.0
2019-Apr-10 21:26N 47°38' W 122°23'0 0.0
2019-Apr-10 20:59N 47°38' W 122°23'0 0.0
2019-Apr-10 20:29N 47°38' W 122°23'0 0.0
2019-Apr-10 19:59N 47°38' W 122°23'0 0.0
2019-Apr-10 19:29N 47°38' W 122°23'0 0.0
2019-Apr-10 18:59N 47°38' W 122°23'0 0.0
2019-Apr-10 18:29N 47°38' W 122°23'0 0.0
2019-Apr-10 17:59N 47°38' W 122°23'0 0.0
2019-Apr-10 17:29N 47°38' W 122°23'0 0.0
2019-Apr-10 16:59N 47°38' W 122°23'0 0.0
2019-Apr-10 16:29N 47°38' W 122°23'0 0.0
2019-Apr-10 15:59N 47°38' W 122°23'0 0.0
2019-Apr-10 15:29N 47°38' W 122°23'0 0.0
2019-Apr-10 14:59N 47°38' W 122°23'0 0.0
2019-Apr-10 14:29N 47°38' W 122°23'0 0.0
2019-Apr-10 13:59N 47°38' W 122°23'0 0.0
2019-Apr-10 13:29N 47°38' W 122°23'0 0.0
2019-Apr-10 12:59N 47°38' W 122°23'0 0.0
2019-Apr-10 12:29N 47°38' W 122°23'0 0.0
2019-Apr-10 11:59N 47°38' W 122°23'0 0.0
2019-Apr-10 11:29N 47°38' W 122°23'0 0.0
2019-Apr-10 10:59N 47°38' W 122°23'0 0.0
2019-Apr-10 10:29N 47°38' W 122°23'0 0.0
2019-Apr-10 09:59N 47°38' W 122°23'0 0.0
2019-Apr-10 09:29N 47°38' W 122°23'0 0.0
2019-Apr-10 08:56N 47°38' W 122°23'0 0.0
2019-Apr-10 08:29N 47°38' W 122°23'0 0.0
2019-Apr-10 07:59N 47°38' W 122°23'0 0.0
2019-Apr-10 07:29N 47°38' W 122°23'0 0.0
2019-Apr-10 06:59N 47°38' W 122°23'0 0.0
2019-Apr-10 06:29N 47°38' W 122°23'0 0.0
2019-Apr-10 05:59N 47°38' W 122°23'0 0.0
2019-Apr-10 05:26N 47°38' W 122°23'0 0.0
2019-Apr-10 04:59N 47°38' W 122°23'0 0.0
2019-Apr-10 04:29N 47°38' W 122°23'0 0.0
2019-Apr-10 03:56N 47°38' W 122°23'0 0.0
2019-Apr-10 03:26N 47°38' W 122°23'0 0.0
2019-Apr-10 02:59N 47°38' W 122°23'0 0.0
2019-Apr-10 02:29N 47°38' W 122°23'2 3.5
2019-Apr-10 02:00N 47°36' W 122°24'2177.0 300 / 71025.4 9.6 0.5 9.9
2019-Apr-10 01:59N 47°38' W 122°23'0 0.0
2019-Apr-10 01:29N 47°38' W 122°23'0 0.7
2019-Apr-10 01:00N 47°37' W 122°23'297.3
2019-Apr-10 01:00N 47°36' W 122°24'4 8.6 320 / 241025.0 7.9 1.4 9.4
2019-Apr-10 00:31N 47°40' W 122°27'510.0
2019-Apr-10 00:01N 47°45' W 122°25'3158.0
2019-Apr-10 00:00N 47°42' W 122°24'3 6.7 280 / 121024.7 8.6 1.9 9.6
2019-Apr-09 23:31N 47°45' W 122°25'1 1.5
2019-Apr-09 23:00N 47°46' W 122°25'2149.3
2019-Apr-09 23:00N 47°48' W 122°24'3 6.8 250 / 151024.5 8.1 0.5 9.4
2019-Apr-09 22:31N 47°45' W 122°25'1 2.8
2019-Apr-09 22:00N 47°43' W 122°25'2115.8
2019-Apr-09 22:00N 47°42' W 122°24'2 4.0 330 / 21024.3 7.9 0.5 9.7
2019-Apr-09 21:30N 47°44' W 122°25'1 2.8
2019-Apr-09 21:01N 47°45' W 122°25'3169.7
2019-Apr-09 21:00N 47°48' W 122°24'2 3.6 300 / 71023.9 7.1 1.6 9.5
2019-Apr-09 20:31N 47°46' W 122°25'0 1.0
2019-Apr-09 20:01N 47°47' W 122°25'178.7
2019-Apr-09 20:00N 47°48' W 122°24'2 3.1 110 / 61023.7 6.4 1.9 9.3
2019-Apr-09 19:31N 47°47' W 122°25'0 0.6
2019-Apr-09 19:01N 47°46' W 122°25'2101.2
2019-Apr-09 19:00N 47°48' W 122°24'3 6.2 140 / 81023.2 6.7 2.6 9.2
2019-Apr-09 18:31N 47°45' W 122°25'2 3.1
2019-Apr-09 18:01N 47°44' W 122°25'2100.3
2019-Apr-09 18:00N 47°42' W 122°24'3 5.7 360 / 111022.2 5.5 2.1 9.3
2019-Apr-09 17:31N 47°43' W 122°28'2 4.6
2019-Apr-09 17:01N 47°43' W 122°31'0 0.0
2019-Apr-09 16:30N 47°43' W 122°31'0 0.0
2019-Apr-09 16:01N 47°43' W 122°31'292.3
2019-Apr-09 16:00N 47°42' W 122°30'2 3.2 090 / 51020.5 4.4 1.8 9.3
2019-Apr-09 15:31N 47°43' W 122°31'0 0.0
2019-Apr-09 15:01N 47°43' W 122°31'0 0.0
2019-Apr-09 14:30N 47°43' W 122°31'0 0.0
2019-Apr-09 14:01N 47°43' W 122°31'0 0.0
2019-Apr-09 13:31N 47°43' W 122°31'0 0.0
2019-Apr-09 13:01N 47°43' W 122°31'293.8
2019-Apr-09 13:00N 47°42' W 122°30'2 3.2 250 / 11 4.8 1.2 9.3
2019-Apr-09 12:30N 47°43' W 122°31'0 0.0
2019-Apr-09 12:01N 47°43' W 122°31'0 0.0
2019-Apr-09 11:31N 47°43' W 122°31'0 0.0
2019-Apr-09 11:01N 47°43' W 122°31'0 0.0
2019-Apr-09 10:30N 47°43' W 122°31'0 0.0
2019-Apr-09 10:01N 47°43' W 122°31'293.8
2019-Apr-09 10:00N 47°42' W 122°30'2 3.2 240 / 9 4.8 2.2 9.4
2019-Apr-09 09:31N 47°43' W 122°31'0 0.0
2019-Apr-09 09:00N 47°43' W 122°31'0 0.0
2019-Apr-09 08:30N 47°43' W 122°31'0 0.0
2019-Apr-09 08:01N 47°43' W 122°31'293.8
2019-Apr-09 08:00N 47°42' W 122°30'2 3.2 250 / 6 5.6 3.5 9.5
2019-Apr-09 07:30N 47°43' W 122°31'0 0.0
2019-Apr-09 07:01N 47°43' W 122°31'293.8
2019-Apr-09 07:00N 47°42' W 122°30'2 3.2 5.0 3.1 9.7
2019-Apr-09 06:30N 47°43' W 122°31'0 0.0
2019-Apr-09 06:00N 47°43' W 122°31'2104.2
2019-Apr-09 06:00N 47°42' W 122°30'1 2.9 140 / 1 5.1 2.8 9.6
2019-Apr-09 05:30N 47°43' W 122°31'3 6.8
2019-Apr-09 05:00N 47°42' W 122°26'2109.7
2019-Apr-09 05:00N 47°42' W 122°24'1 1.4 140 / 13 5.5 2.5 9.3
2019-Apr-09 04:31N 47°41' W 122°25'1 1.5
2019-Apr-09 04:00N 47°42' W 122°26'170.8
2019-Apr-09 04:00N 47°42' W 122°24'1 2.7 290 / 2 5.5 2.5 9.3
2019-Apr-09 03:30N 47°43' W 122°25'0 0.9
2019-Apr-09 03:00N 47°44' W 122°25'2106.0
2019-Apr-09 03:00N 47°42' W 122°24'1 2.3 240 / 14 5.5 3.2 9.1
2019-Apr-09 02:30N 47°43' W 122°25'1 3.0
2019-Apr-09 02:00N 47°44' W 122°25'2140.9
2019-Apr-09 02:00N 47°42' W 122°24'3 7.1 350 / 8 5.8 3.2 9.2
2019-Apr-09 01:30N 47°45' W 122°25'1 1.4
2019-Apr-09 01:01N 47°45' W 122°25'1 2.5
2019-Apr-09 00:31N 47°43' W 122°25'1 2.4
2019-Apr-09 00:01N 47°42' W 122°25'155.7
2019-Apr-09 00:00N 47°42' W 122°24'1 2.1 150 / 6 8.0 3.7 9.6
2019-Apr-08 23:31N 47°42' W 122°25'1 2.3
2019-Apr-08 23:01N 47°43' W 122°25'290.2
2019-Apr-08 23:00N 47°42' W 122°24'2 4.9 070 / 6 9.2 3.210.2
2019-Apr-08 22:30N 47°44' W 122°25'0 0.3
2019-Apr-08 22:00N 47°44' W 122°25'2138.3
2019-Apr-08 22:00N 47°42' W 122°24'3 6.1 070 / 3 9.4 3.7 9.7
2019-Apr-08 21:31N 47°45' W 122°24'0 0.3
2019-Apr-08 21:00N 47°45' W 122°24'3174.0
2019-Apr-08 21:00N 47°42' W 122°24'2 3.9 100 / 8 7.2 3.6 9.5
2019-Apr-08 20:31N 47°44' W 122°24'1 2.1
2019-Apr-08 20:01N 47°45' W 122°24'3177.3
2019-Apr-08 20:00N 47°42' W 122°24'3 5.7 090 / 10 6.6 3.2 9.4
2019-Apr-08 19:31N 47°45' W 122°25'1 1.3
2019-Apr-08 19:01N 47°45' W 122°24'3159.3
2019-Apr-08 19:00N 47°48' W 122°24'3 5.5 100 / 7 6.0 2.3 9.2
2019-Apr-08 18:30N 47°45' W 122°24'1 2.6
2019-Apr-08 18:01N 47°44' W 122°24'2124.3
2019-Apr-08 18:00N 47°42' W 122°24'2 3.9 200 / 3 6.3 2.5 9.1
2019-Apr-08 17:30N 47°41' W 122°26'2 4.0
2019-Apr-08 17:01N 47°39' W 122°26'2 4.5
2019-Apr-08 16:31N 47°38' W 122°23'2 3.0
2019-Apr-08 16:00N 47°36' W 122°24'2451.4 130 / 2 5.6 2.1 9.5
2019-Apr-08 15:59N 47°38' W 122°23'0 0.0
2019-Apr-08 15:29N 47°38' W 122°23'2 3.5
2019-Apr-08 15:00N 47°36' W 122°24'2351.1 260 / 2 5.0 1.4 9.5
2019-Apr-08 14:59N 47°38' W 122°23'0 0.0
2019-Apr-08 14:29N 47°38' W 122°23'0 0.0
2019-Apr-08 13:59N 47°38' W 122°23'0 0.0
2019-Apr-08 13:29N 47°38' W 122°23'0 0.0
2019-Apr-08 12:59N 47°38' W 122°23'0 0.0
2019-Apr-08 12:29N 47°38' W 122°23'0 0.0
2019-Apr-08 11:59N 47°38' W 122°23'0 0.0
2019-Apr-08 11:29N 47°38' W 122°23'0 0.0
2019-Apr-08 10:59N 47°38' W 122°23'0 0.0
2019-Apr-08 10:29N 47°38' W 122°23'0 0.0
2019-Apr-08 09:59N 47°38' W 122°23'0 0.0
2019-Apr-08 09:26N 47°38' W 122°23'0 0.0
2019-Apr-08 08:59N 47°38' W 122°23'0 0.0
2019-Apr-08 08:29N 47°38' W 122°23'0 0.0
2019-Apr-08 07:56N 47°38' W 122°23'0 0.0
2019-Apr-08 07:29N 47°38' W 122°23'0 0.0
2019-Apr-08 06:59N 47°38' W 122°23'0 0.0
2019-Apr-08 06:29N 47°38' W 122°23'0 0.0
2019-Apr-08 05:59N 47°38' W 122°23'0 0.0
2019-Apr-08 05:29N 47°38' W 122°23'0 0.0
2019-Apr-08 04:59N 47°38' W 122°23'0 0.0
2019-Apr-08 04:29N 47°38' W 122°23'0 0.0
2019-Apr-08 03:59N 47°38' W 122°23'0 0.0
2019-Apr-08 03:29N 47°38' W 122°23'0 0.0
2019-Apr-08 02:59N 47°38' W 122°23'0 0.0
2019-Apr-08 02:29N 47°38' W 122°23'0 0.0
2019-Apr-08 01:59N 47°38' W 122°23'0 0.0
2019-Apr-08 01:29N 47°38' W 122°23'0 0.0
2019-Apr-08 00:59N 47°38' W 122°23'0 0.0
2019-Apr-08 00:29N 47°38' W 122°23'0 0.0
2019-Apr-07 23:59N 47°38' W 122°23'0 0.0
2019-Apr-07 23:26N 47°38' W 122°23'0 0.0
2019-Apr-07 22:59N 47°38' W 122°23'0 0.0
2019-Apr-07 22:29N 47°38' W 122°23'0 0.0
2019-Apr-07 21:59N 47°38' W 122°23'0 0.0
2019-Apr-07 21:26N 47°38' W 122°23'0 0.0
2019-Apr-07 20:59N 47°38' W 122°23'0 0.0
2019-Apr-07 20:29N 47°38' W 122°23'0 0.0
2019-Apr-07 19:59N 47°38' W 122°23'0 0.0
2019-Apr-07 19:29N 47°38' W 122°23'0 0.0
2019-Apr-07 18:59N 47°38' W 122°23'0 0.0
2019-Apr-07 18:29N 47°38' W 122°23'0 0.6
2019-Apr-07 18:00N 47°37' W 122°23'1 1.2
2019-Apr-07 17:30N 47°38' W 122°24'3 6.6
2019-Apr-07 17:01N 47°40' W 122°27'5 9.9
2019-Apr-07 16:30N 47°45' W 122°24'1 1.2
2019-Apr-07 16:00N 47°44' W 122°25'1 1.6
2019-Apr-07 15:31N 47°44' W 122°25'1 1.4
2019-Apr-07 15:00N 47°43' W 122°25'0 0.1
2019-Apr-07 14:30N 47°43' W 122°25'0 0.0
2019-Apr-07 14:01N 47°43' W 122°25'0 0.0
2019-Apr-07 13:30N 47°43' W 122°25'0 0.0
2019-Apr-07 13:00N 47°43' W 122°25'0 0.0
2019-Apr-07 12:30N 47°43' W 122°25'0 0.0
2019-Apr-07 12:00N 47°43' W 122°25'0 0.0
2019-Apr-07 11:30N 47°43' W 122°25'0 0.0
2019-Apr-07 11:00N 47°43' W 122°25'0 0.0
2019-Apr-07 10:30N 47°43' W 122°25'0 0.0
2019-Apr-07 10:01N 47°43' W 122°25'0 0.0
2019-Apr-07 09:30N 47°43' W 122°25'0 0.0
2019-Apr-07 09:01N 47°43' W 122°25'0 0.0
2019-Apr-07 08:31N 47°43' W 122°25'0 0.0
2019-Apr-07 08:01N 47°43' W 122°25'0 0.6
2019-Apr-07 07:31N 47°43' W 122°25'2 4.8
2019-Apr-07 07:01N 47°45' W 122°25'1 2.7
2019-Apr-07 06:31N 47°44' W 122°25'2 3.2
2019-Apr-07 06:00N 47°42' W 122°25'1 2.8
2019-Apr-07 05:30N 47°44' W 122°25'1 1.4
2019-Apr-07 05:00N 47°45' W 122°25'1 1.2
2019-Apr-07 04:31N 47°44' W 122°25'1 2.3
2019-Apr-07 04:01N 47°43' W 122°24'  

Dump ship's entire track history